createdAt,value
2023-05-12T00:01:52.472Z,13.12
2023-05-12T00:05:01.540Z,12.99
2023-05-12T00:08:10.482Z,12.95
2023-05-12T00:11:32.499Z,13.01
2023-05-12T00:14:43.504Z,12.99
2023-05-12T00:17:52.150Z,13.02
2023-05-12T00:21:01.501Z,13.01
2023-05-12T00:24:10.092Z,13.01
2023-05-12T00:27:24.495Z,13.01
2023-05-12T00:30:26.402Z,12.98
2023-05-12T00:33:48.511Z,12.99
2023-05-12T00:36:56.480Z,12.99
2023-05-12T00:40:12.471Z,12.98
2023-05-12T00:43:20.488Z,13.01
2023-05-12T00:46:35.484Z,13.03
2023-05-12T00:49:44.063Z,13.03
2023-05-12T00:52:53.497Z,13.03
2023-05-12T00:56:08.470Z,13.03
2023-05-12T00:59:16.494Z,13.02
2023-05-12T01:02:25.261Z,12.96
2023-05-12T01:05:54.506Z,12.90
2023-05-12T01:09:16.471Z,12.84
2023-05-12T01:12:32.479Z,12.82
2023-05-12T01:15:52.472Z,12.86
2023-05-12T01:18:56.165Z,12.88
2023-05-12T01:22:11.502Z,12.87
2023-05-12T01:25:15.504Z,12.84
2023-05-12T01:28:30.498Z,12.74
2023-05-12T01:31:45.613Z,12.81
2023-05-12T01:34:47.600Z,12.77
2023-05-12T01:38:02.492Z,12.78
2023-05-12T01:41:10.497Z,12.80
2023-05-12T01:44:25.508Z,12.69
2023-05-12T01:47:27.346Z,12.82
2023-05-12T01:50:42.566Z,12.65
2023-05-12T01:53:44.452Z,12.53
2023-05-12T01:56:59.504Z,12.59
2023-05-12T02:00:15.522Z,12.59
2023-05-12T02:03:24.177Z,12.59
2023-05-12T02:06:33.476Z,12.57
2023-05-12T02:09:55.496Z,12.60
2023-05-12T02:13:10.492Z,12.56
2023-05-12T02:16:25.556Z,12.61
2023-05-12T02:19:27.396Z,12.59
2023-05-12T02:22:42.486Z,12.57
2023-05-12T02:25:57.507Z,12.51
2023-05-12T02:29:05.468Z,12.50
2023-05-12T02:32:20.510Z,12.48
2023-05-12T02:35:29.063Z,12.47
2023-05-12T02:38:43.486Z,12.32
2023-05-12T02:41:45.330Z,12.47
2023-05-12T02:45:00.471Z,12.42
2023-05-12T02:48:15.467Z,12.44
2023-05-12T02:51:24.075Z,12.45
2023-05-12T02:54:38.482Z,12.46
2023-05-12T02:57:47.028Z,12.40
2023-05-12T03:01:03.339Z,12.35
2023-05-12T03:04:24.505Z,12.42
2023-05-12T03:07:33.088Z,12.40
2023-05-12T03:10:41.525Z,12.39
2023-05-12T03:13:50.061Z,12.43
2023-05-12T03:17:04.550Z,12.36
2023-05-12T03:20:07.202Z,12.41
2023-05-12T03:23:22.530Z,12.44
2023-05-12T03:26:31.063Z,12.43
2023-05-12T03:29:39.513Z,12.38
2023-05-12T03:32:48.165Z,12.35
2023-05-12T03:36:03.509Z,12.32
2023-05-12T03:39:11.495Z,12.34
2023-05-12T03:42:20.036Z,12.32
2023-05-12T03:45:34.483Z,12.34
2023-05-12T03:48:43.039Z,12.28
2023-05-12T03:51:51.475Z,12.27
2023-05-12T03:55:06.507Z,12.29
2023-05-12T03:58:15.099Z,12.32
2023-05-12T04:01:29.559Z,12.36
2023-05-12T04:04:31.460Z,12.36
2023-05-12T04:07:46.492Z,12.40
2023-05-12T04:11:02.133Z,12.29
2023-05-12T04:14:16.492Z,12.31
2023-05-12T04:17:24.545Z,12.36
2023-05-12T04:20:39.487Z,12.27
2023-05-12T04:23:41.296Z,12.34
2023-05-12T04:26:56.493Z,12.34
2023-05-12T04:30:05.602Z,12.23
2023-05-12T04:33:14.495Z,12.21
2023-05-12T04:36:23.147Z,12.24
2023-05-12T04:39:31.500Z,12.20
2023-05-12T04:42:46.492Z,12.15
2023-05-12T04:45:55.077Z,12.27
2023-05-12T04:49:03.497Z,12.26
2023-05-12T04:52:12.109Z,12.29
2023-05-12T04:55:20.634Z,12.27
2023-05-12T04:58:29.037Z,12.32
2023-05-12T05:01:43.618Z,12.28
2023-05-12T05:04:45.564Z,12.28
2023-05-12T05:08:00.536Z,12.31
2023-05-12T05:11:15.761Z,12.26
2023-05-12T05:14:30.517Z,12.29
2023-05-12T05:17:45.516Z,12.28
2023-05-12T05:20:58.625Z,12.34
2023-05-12T05:24:09.074Z,12.24
2023-05-12T05:27:18.024Z,12.20
2023-05-12T05:30:32.586Z,12.31
2023-05-12T05:33:34.494Z,12.34
2023-05-12T05:36:49.486Z,12.24
2023-05-12T05:40:04.515Z,12.25
2023-05-12T05:43:06.516Z,12.25
2023-05-12T05:46:21.611Z,12.30
2023-05-12T05:49:23.463Z,12.36
2023-05-12T05:52:38.520Z,12.36
2023-05-12T05:55:48.068Z,12.38
2023-05-12T05:59:02.538Z,12.26
2023-05-12T06:02:17.585Z,12.34
2023-05-12T06:05:26.083Z,12.45
2023-05-12T06:08:40.474Z,12.36
2023-05-12T06:12:02.525Z,12.31
2023-05-12T06:15:11.300Z,12.32
2023-05-12T06:18:19.558Z,12.40
2023-05-12T06:21:35.180Z,12.47
2023-05-12T06:24:39.785Z,12.59
2023-05-12T06:27:58.519Z,12.64
2023-05-12T06:31:15.628Z,12.64
2023-05-12T06:34:24.335Z,12.59
2023-05-12T06:37:39.730Z,12.56
2023-05-12T06:40:41.538Z,12.57
2023-05-12T06:43:56.491Z,12.60
2023-05-12T06:47:05.541Z,12.69
2023-05-12T06:50:20.594Z,12.82
2023-05-12T06:53:28.538Z,12.87
2023-05-12T06:56:37.055Z,12.96
2023-05-12T06:59:45.524Z,13.08
2023-05-12T07:02:54.129Z,13.04
2023-05-12T07:06:02.570Z,13.00
2023-05-12T07:09:24.522Z,12.87
2023-05-12T07:12:46.510Z,13.03
2023-05-12T07:16:03.712Z,13.03
2023-05-12T07:19:13.251Z,13.17
2023-05-12T07:22:28.522Z,13.25
2023-05-12T07:25:37.175Z,13.30
2023-05-12T07:28:52.524Z,13.14
2023-05-12T07:32:07.506Z,13.24
2023-05-12T07:35:24.598Z,13.30
2023-05-12T07:38:33.533Z,13.22
2023-05-12T07:41:42.067Z,13.14
2023-05-12T07:44:56.515Z,13.21
2023-05-12T07:48:04.550Z,13.28
2023-05-12T07:51:13.078Z,13.32
2023-05-12T07:54:27.517Z,13.36
2023-05-12T07:57:29.361Z,13.39
2023-05-12T08:00:44.501Z,13.43
2023-05-12T08:03:46.440Z,13.48
2023-05-12T08:07:01.503Z,13.61
2023-05-12T08:10:23.654Z,13.76
2023-05-12T08:13:38.503Z,14.07
2023-05-12T08:16:47.192Z,14.17
2023-05-12T08:20:01.516Z,14.19
2023-05-12T08:23:16.527Z,14.16
2023-05-12T08:26:24.498Z,14.30
2023-05-12T08:29:33.023Z,14.26
2023-05-12T08:32:47.529Z,14.35
2023-05-12T08:35:56.054Z,14.12
2023-05-12T08:39:10.499Z,13.91
2023-05-12T08:42:41.716Z,13.99
2023-05-12T08:45:50.892Z,13.92
2023-05-12T08:49:07.513Z,14.00
2023-05-12T08:52:17.958Z,13.93
2023-05-12T08:55:32.792Z,13.88
2023-05-12T08:58:43.933Z,13.87
2023-05-12T09:01:53.585Z,13.72
2023-05-12T09:05:08.526Z,13.50
2023-05-12T09:08:11.025Z,13.56
2023-05-12T09:11:32.514Z,13.38
2023-05-12T09:14:51.531Z,13.30
2023-05-12T09:18:06.599Z,12.97
2023-05-12T09:21:14.530Z,12.97
2023-05-12T09:24:37.243Z,12.70
2023-05-12T09:27:45.513Z,12.69
2023-05-12T09:31:00.512Z,12.70
2023-05-12T09:34:14.541Z,12.27
2023-05-12T09:37:30.509Z,12.45
2023-05-12T09:40:38.549Z,12.55
2023-05-12T09:43:53.500Z,12.55
2023-05-12T09:47:13.763Z,12.49
2023-05-12T09:50:22.073Z,12.40
2023-05-12T09:53:30.520Z,12.51
2023-05-12T09:56:48.753Z,12.51
2023-05-12T09:59:57.871Z,12.32
2023-05-12T10:03:21.499Z,12.35
2023-05-12T10:06:40.818Z,12.48
2023-05-12T10:09:56.535Z,12.37
2023-05-12T10:13:11.610Z,12.32
2023-05-12T10:16:21.446Z,12.51
2023-05-12T10:19:32.534Z,12.57
2023-05-12T10:22:47.636Z,12.53
2023-05-12T10:26:02.534Z,12.47
2023-05-12T10:29:18.517Z,12.46
2023-05-12T10:32:27.414Z,12.34
2023-05-12T10:35:40.520Z,12.33
2023-05-12T10:39:10.526Z,12.29
2023-05-12T10:42:29.662Z,12.35
2023-05-12T10:45:36.477Z,12.42
2023-05-12T10:49:13.530Z,12.23
2023-05-12T10:52:26.553Z,12.22
2023-05-12T10:55:48.784Z,12.23
2023-05-12T10:59:24.169Z,12.28
2023-05-12T11:02:40.300Z,12.27
2023-05-12T11:06:08.780Z,12.37
2023-05-12T11:09:13.171Z,12.40
2023-05-12T11:12:28.527Z,12.43
2023-05-12T11:15:37.494Z,12.36
2023-05-12T11:18:46.054Z,12.34
2023-05-12T11:22:01.523Z,12.45
2023-05-12T11:25:12.116Z,12.53
2023-05-12T11:28:20.536Z,12.59
2023-05-12T11:31:29.108Z,12.49
2023-05-12T11:34:43.503Z,12.54
2023-05-12T11:37:46.136Z,12.55
2023-05-12T11:41:00.543Z,12.58
2023-05-12T11:44:21.534Z,12.54
2023-05-12T11:47:36.536Z,12.51
2023-05-12T11:50:43.382Z,12.60
2023-05-12T11:54:00.531Z,12.61
2023-05-12T11:57:09.082Z,12.42
2023-05-12T12:00:18.542Z,12.52
2023-05-12T12:03:27.159Z,12.54
2023-05-12T12:06:35.559Z,12.54
2023-05-12T12:09:44.024Z,12.51
2023-05-12T12:13:09.504Z,12.43
2023-05-12T12:16:18.312Z,12.38
2023-05-12T12:19:34.523Z,12.43
2023-05-12T12:22:42.522Z,12.52
2023-05-12T12:25:57.536Z,12.48
2023-05-12T12:29:05.589Z,12.48
2023-05-12T12:32:14.111Z,12.37
2023-05-12T12:35:28.544Z,12.42
2023-05-12T12:38:30.463Z,12.46
2023-05-12T12:41:45.528Z,12.32
2023-05-12T12:44:53.529Z,12.35
2023-05-12T12:48:08.597Z,12.39
2023-05-12T12:51:17.214Z,12.37
2023-05-12T12:54:31.534Z,12.25
2023-05-12T12:57:40.533Z,12.28
2023-05-12T13:00:56.573Z,12.50
2023-05-12T13:03:58.363Z,12.47
2023-05-12T13:07:13.531Z,12.54
2023-05-12T13:10:28.530Z,12.51
2023-05-12T13:13:50.547Z,12.53
2023-05-12T13:17:05.546Z,12.33
2023-05-12T13:20:15.320Z,12.38
2023-05-12T13:23:23.519Z,12.28
2023-05-12T13:26:32.091Z,12.35
2023-05-12T13:29:40.515Z,12.27
2023-05-12T13:32:55.537Z,12.29
2023-05-12T13:36:10.543Z,12.31
2023-05-12T13:39:12.352Z,12.37
2023-05-12T13:42:27.525Z,12.34
2023-05-12T13:45:36.087Z,12.36
2023-05-12T13:48:50.538Z,12.36
2023-05-12T13:51:59.044Z,12.33
2023-05-12T13:55:20.440Z,12.38
2023-05-12T13:58:23.303Z,12.42
2023-05-12T14:01:38.546Z,12.25
2023-05-12T14:04:40.399Z,12.32
2023-05-12T14:07:55.526Z,12.32
2023-05-12T14:11:17.505Z,12.33
2023-05-12T14:14:32.563Z,12.17
2023-05-12T14:17:41.140Z,12.08
2023-05-12T14:20:55.531Z,12.15
2023-05-12T14:24:03.511Z,12.13
2023-05-12T14:27:12.062Z,12.15
2023-05-12T14:30:20.556Z,12.20
2023-05-12T14:33:35.566Z,12.24
2023-05-12T14:36:37.473Z,12.28
2023-05-12T14:39:52.553Z,12.19
2023-05-12T14:42:54.420Z,12.20
2023-05-12T14:46:09.587Z,12.19
2023-05-12T14:49:11.741Z,12.13
2023-05-12T14:52:26.559Z,12.13
2023-05-12T14:55:41.524Z,12.17
2023-05-12T14:58:49.520Z,12.16
2023-05-12T15:01:58.299Z,12.07
2023-05-12T15:05:06.542Z,11.99
2023-05-12T15:08:22.565Z,12.03
2023-05-12T15:11:37.818Z,12.03
2023-05-12T15:14:46.556Z,12.02
2023-05-12T15:18:01.610Z,11.97
2023-05-12T15:21:10.180Z,11.99
2023-05-12T15:24:18.539Z,11.95
2023-05-12T15:27:27.243Z,11.93
2023-05-12T15:30:35.550Z,11.96
2023-05-12T15:33:44.094Z,11.97
2023-05-12T15:36:52.556Z,11.95
2023-05-12T15:40:07.557Z,11.99
2023-05-12T15:43:16.098Z,12.00
2023-05-12T15:46:24.618Z,11.90
2023-05-12T15:49:39.551Z,12.07
2023-05-12T15:52:48.490Z,12.09
2023-05-12T15:56:07.532Z,12.11
2023-05-12T15:59:17.125Z,12.13
2023-05-12T16:02:34.680Z,12.13
2023-05-12T16:05:43.023Z,11.91
2023-05-12T16:08:51.522Z,11.93
2023-05-12T16:12:00.061Z,11.94
2023-05-12T16:15:21.777Z,11.96
2023-05-12T16:18:30.618Z,12.03
2023-05-12T16:21:43.041Z,11.96
2023-05-12T16:24:57.558Z,12.01
2023-05-12T16:28:06.116Z,11.98
2023-05-12T16:31:14.595Z,11.92
2023-05-12T16:34:29.586Z,11.88
2023-05-12T16:37:38.045Z,11.82
2023-05-12T16:40:52.601Z,11.87
2023-05-12T16:43:54.675Z,11.92
2023-05-12T16:47:09.504Z,11.94
2023-05-12T16:50:18.162Z,11.98
2023-05-12T16:53:32.526Z,11.95
2023-05-12T16:56:47.579Z,11.88
2023-05-12T16:59:56.114Z,11.84
2023-05-12T17:03:04.902Z,11.85
2023-05-12T17:06:20.538Z,11.89
2023-05-12T17:09:35.531Z,11.82
2023-05-12T17:12:50.542Z,11.75
2023-05-12T17:15:52.575Z,11.65
2023-05-12T17:22:19.075Z,11.66
2023-05-12T17:25:33.551Z,11.57
2023-05-12T17:28:35.345Z,11.58
2023-05-12T17:31:50.591Z,11.55
2023-05-12T17:34:58.548Z,11.56
2023-05-12T17:38:07.247Z,11.58
2023-05-12T17:41:15.553Z,11.48
2023-05-12T17:44:30.549Z,11.52
2023-05-12T17:47:39.163Z,11.52
2023-05-12T17:50:47.536Z,11.42
2023-05-12T17:54:02.584Z,11.52
2023-05-12T17:57:11.556Z,11.48
2023-05-12T18:00:20.275Z,11.46
2023-05-12T18:03:28.635Z,11.40
2023-05-12T18:06:37.084Z,11.38
2023-05-12T18:09:51.539Z,11.22
2023-05-12T18:12:59.780Z,11.33
2023-05-12T18:16:25.336Z,11.29
2023-05-12T18:19:30.649Z,11.30
2023-05-12T18:22:45.538Z,11.32
2023-05-12T18:25:47.408Z,11.36
2023-05-12T18:29:02.573Z,11.34
2023-05-12T18:32:11.197Z,11.26
2023-05-12T18:35:19.771Z,11.26
2023-05-12T18:38:35.537Z,11.21
2023-05-12T18:41:50.544Z,11.24
2023-05-12T18:44:59.531Z,11.24
2023-05-12T18:48:08.300Z,11.19
2023-05-12T18:51:17.784Z,11.17
2023-05-12T18:54:32.574Z,11.16
2023-05-12T18:57:41.511Z,11.17
2023-05-12T19:00:56.585Z,11.22
2023-05-12T19:03:58.623Z,11.20
2023-05-12T19:07:13.555Z,11.19
2023-05-12T19:10:22.546Z,11.24
2023-05-12T19:13:44.545Z,11.22
2023-05-12T19:16:53.215Z,11.20
2023-05-12T19:20:01.565Z,11.22
2023-05-12T19:23:16.592Z,11.23
2023-05-12T19:26:18.652Z,11.26
2023-05-12T19:29:34.561Z,11.28
2023-05-12T19:32:43.298Z,11.23
2023-05-12T19:35:51.528Z,11.26
2023-05-12T19:39:06.577Z,11.27
2023-05-12T19:42:14.571Z,11.18
2023-05-12T19:45:29.936Z,11.30
2023-05-12T19:48:38.614Z,11.31
2023-05-12T19:51:53.579Z,11.31
2023-05-12T19:54:55.576Z,11.31
2023-05-12T19:58:10.557Z,11.31
2023-05-12T20:01:12.521Z,11.31
2023-05-12T20:04:27.563Z,11.30
2023-05-12T20:07:42.563Z,11.22
2023-05-12T20:10:44.390Z,11.31
2023-05-12T20:14:06.544Z,11.36
2023-05-12T20:17:21.581Z,11.38
2023-05-12T20:20:30.576Z,11.39
2023-05-12T20:23:39.180Z,11.41
2023-05-12T20:26:54.566Z,11.41
2023-05-12T20:30:03.213Z,11.43
2023-05-12T20:33:18.569Z,11.43
2023-05-12T20:36:20.504Z,11.43
2023-05-12T20:39:35.585Z,11.45
2023-05-12T20:42:52.530Z,11.40
2023-05-12T20:46:11.642Z,11.34
2023-05-12T20:49:20.117Z,11.47
2023-05-12T20:52:52.555Z,11.48
2023-05-12T20:55:54.368Z,11.49
2023-05-12T20:59:09.565Z,11.51
2023-05-12T21:02:19.065Z,11.52
2023-05-12T21:05:34.566Z,11.52
2023-05-12T21:08:49.588Z,11.51
2023-05-12T21:11:51.413Z,11.55
2023-05-12T21:15:16.545Z,11.53
2023-05-12T21:18:31.552Z,11.57
2023-05-12T21:21:46.540Z,11.50
2023-05-12T21:25:01.563Z,11.56
2023-05-12T21:28:10.595Z,11.49
2023-05-12T21:31:25.581Z,11.52
2023-05-12T21:34:34.554Z,11.51
2023-05-12T21:37:43.113Z,11.54
2023-05-12T21:40:55.557Z,11.54
2023-05-12T21:44:05.356Z,11.53
2023-05-12T21:47:13.537Z,11.52
2023-05-12T21:50:28.545Z,11.53
2023-05-12T21:53:30.479Z,11.55
2023-05-12T21:56:45.565Z,11.50
2023-05-12T21:59:47.495Z,11.41
2023-05-12T22:03:02.626Z,11.43
2023-05-12T22:06:04.934Z,11.45
2023-05-12T22:09:19.547Z,11.39
2023-05-12T22:12:21.503Z,11.49
2023-05-12T22:15:43.652Z,11.46
2023-05-12T22:18:58.571Z,11.48
2023-05-12T22:22:00.444Z,11.38
2023-05-12T22:25:15.583Z,11.47
2023-05-12T22:28:23.582Z,11.42
2023-05-12T22:31:38.682Z,11.46
2023-05-12T22:34:47.609Z,11.50
2023-05-12T22:38:02.556Z,11.50
2023-05-12T22:41:17.581Z,11.49
2023-05-12T22:44:19.374Z,11.51
2023-05-12T22:47:34.600Z,11.52
2023-05-12T22:50:53.846Z,11.50
2023-05-12T22:54:02.560Z,11.49
2023-05-12T22:57:17.536Z,11.48
2023-05-12T23:00:26.585Z,11.45
2023-05-12T23:03:41.576Z,11.43
2023-05-12T23:06:49.558Z,11.48
2023-05-12T23:09:58.143Z,11.43
2023-05-12T23:13:12.573Z,11.42
2023-05-12T23:16:14.412Z,11.40
2023-05-12T23:19:29.573Z,11.35
2023-05-12T23:22:31.456Z,11.37
2023-05-12T23:25:46.569Z,11.38
2023-05-12T23:28:54.547Z,11.37
2023-05-12T23:32:03.657Z,11.38
2023-05-12T23:35:18.548Z,11.29
2023-05-12T23:38:26.566Z,11.33
2023-05-12T23:41:35.225Z,11.36
2023-05-12T23:44:49.550Z,11.37
2023-05-12T23:47:57.594Z,11.33
2023-05-12T23:51:06.114Z,11.23
2023-05-12T23:54:20.601Z,11.22
2023-05-12T23:57:22.439Z,11.28
